Time;durP1;ratioP1;P1;durP2;ratioP2;P2;SDS_P1;SDS_P2;PMS_P1;PMS_P2;Temp;Humidity;BMP_temperature;BMP_pressure;BME280_temperature;BME280_humidity;BME280_pressure;Samples;Min_cycle;Max_cycle;Signal;HPM_P1;HPM_P2
2021/04/20 00:01:35;;;;;;;19.63;10.93;;;;;;;10.16;100.00;102005.03;5032252;28;20045;-69
2021/04/20 00:04:05;;;;;;;21.88;11.77;;;;;;;10.15;100.00;101998.75;5046497;28;20041;-69
2021/04/20 00:06:32;;;;;;;23.80;11.32;;;;;;;10.17;100.00;101998.53;5032059;28;20043;-69
2021/04/20 00:08:58;;;;;;;15.63;10.90;;;;;;;10.16;100.00;101996.84;5032116;28;20120;-68
2021/04/20 00:11:24;;;;;;;19.75;10.75;;;;;;;10.16;100.00;101999.59;5032098;28;20472;-66
2021/04/20 00:13:53;;;;;;;23.70;11.38;;;;;;;10.15;100.00;102004.19;5031875;28;20453;-68
2021/04/20 00:16:18;;;;;;;19.25;11.15;;;;;;;10.14;100.00;101997.06;5032297;28;20117;-68
2021/04/20 00:18:45;;;;;;;16.60;12.52;;;;;;;10.15;100.00;102003.38;5031790;28;20060;-68
2021/04/20 00:21:10;;;;;;;16.73;11.52;;;;;;;10.14;100.00;101998.97;5031889;28;20045;-67
2021/04/20 00:23:36;;;;;;;17.90;10.88;;;;;;;10.14;100.00;101996.22;5031592;28;20037;-68
2021/04/20 00:26:02;;;;;;;17.95;11.00;;;;;;;10.12;100.00;102001.06;5031766;28;20040;-67
2021/04/20 00:28:28;;;;;;;16.27;10.90;;;;;;;10.13;100.00;102005.47;5031585;28;20033;-67
2021/04/20 00:30:55;;;;;;;20.70;11.88;;;;;;;10.12;100.00;102001.06;5031647;28;20083;-67
2021/04/20 00:33:21;;;;;;;17.75;10.77;;;;;;;10.12;100.00;102003.78;5031723;28;20041;-68
2021/04/20 00:35:47;;;;;;;22.95;12.02;;;;;;;10.09;100.00;102004.22;5031653;28;20523;-67
2021/04/20 00:38:13;;;;;;;17.98;11.57;;;;;;;10.09;100.00;102004.22;5031533;28;20090;-68
2021/04/20 00:40:39;;;;;;;21.75;11.52;;;;;;;10.07;100.00;101998.13;5031022;28;20049;-65
2021/04/20 00:43:05;;;;;;;17.02;10.25;;;;;;;10.03;100.00;102000.41;5031615;28;20041;-67
2021/04/20 00:45:33;;;;;;;14.70;9.75;;;;;;;10.01;100.00;102001.69;5031244;28;20491;-68
2021/04/20 00:48:01;;;;;;;14.80;9.32;;;;;;;10.00;100.00;101995.38;5031369;28;20380;-67
2021/04/20 00:50:32;;;;;;;16.48;10.48;;;;;;;10.00;100.00;101994.53;5031398;28;20057;-65
2021/04/20 00:52:59;;;;;;;19.90;10.57;;;;;;;9.98;100.00;101992.88;5030488;28;20034;-70
2021/04/20 00:55:24;;;;;;;18.20;11.30;;;;;;;9.98;100.00;101992.88;5031082;28;20463;-67
2021/04/20 00:57:50;;;;;;;18.83;11.23;;;;;;;9.98;100.00;101992.88;5031146;28;20037;-66
2021/04/20 01:00:24;;;;;;;18.77;11.88;;;;;;;10.00;100.00;101987.19;5030011;28;20472;-67
2021/04/20 01:02:51;;;;;;;15.40;10.98;;;;;;;9.98;100.00;101987.41;5031310;28;20030;-68
2021/04/20 01:05:20;;;;;;;13.38;10.27;;;;;;;9.97;100.00;101980.28;5031125;28;20045;-68
2021/04/20 01:07:46;;;;;;;18.40;11.85;;;;;;;9.97;100.00;101983.00;5030981;28;20488;-68
2021/04/20 01:10:13;;;;;;;20.25;11.38;;;;;;;9.96;100.00;101984.06;5031062;28;20030;-67
2021/04/20 01:12:41;;;;;;;18.30;12.00;;;;;;;9.95;100.00;101979.66;5031000;28;20486;-66
2021/04/20 01:15:09;;;;;;;22.20;12.70;;;;;;;9.94;100.00;101979.88;5031397;28;20040;-69
2021/04/20 01:17:35;;;;;;;20.02;12.45;;;;;;;9.91;100.00;101981.13;5031050;28;20057;-67
2021/04/20 01:20:05;;;;;;;17.63;10.98;;;;;;;9.90;100.00;101979.44;5030912;28;20474;-68
2021/04/20 01:22:34;;;;;;;18.17;11.50;;;;;;;9.88;100.00;101976.06;5029841;28;20045;-67
2021/04/20 01:25:01;;;;;;;20.15;13.63;;;;;;;9.88;100.00;101977.94;5030996;28;20407;-67
2021/04/20 01:27:27;;;;;;;17.77;12.77;;;;;;;9.86;100.00;101978.16;5031108;28;20120;-67
2021/04/20 01:29:56;;;;;;;22.48;13.10;;;;;;;9.83;100.00;101978.59;5031021;28;20151;-66
2021/04/20 01:32:22;;;;;;;22.90;14.15;;;;;;;9.80;100.00;101978.16;5029756;28;20040;-68
2021/04/20 01:34:48;;;;;;;21.08;14.00;;;;;;;9.80;100.00;101972.72;5031044;28;20037;-68
2021/04/20 01:37:14;;;;;;;23.65;14.30;;;;;;;9.77;100.00;101979.44;5030872;28;20413;-66
2021/04/20 01:39:47;;;;;;;22.55;14.13;;;;;;;9.76;100.00;101975.03;5030809;28;20446;-68
2021/04/20 01:42:12;;;;;;;26.15;15.35;;;;;;;9.75;100.00;101981.53;5030764;28;20483;-67
2021/04/20 01:44:39;;;;;;;24.77;16.00;;;;;;;9.73;100.00;101972.72;5030823;28;20260;-68
2021/04/20 01:47:04;;;;;;;22.05;15.27;;;;;;;9.73;100.00;101972.72;5030987;28;20030;-67
2021/04/20 01:49:31;;;;;;;24.42;15.50;;;;;;;9.72;100.00;101972.91;5030732;28;20029;-67
2021/04/20 01:51:58;;;;;;;24.88;15.85;;;;;;;9.71;100.00;101976.69;5030768;28;20500;-67
2021/04/20 01:54:25;;;;;;;25.15;16.42;;;;;;;9.68;100.00;101967.03;5030597;28;20091;-66
2021/04/20 01:56:52;;;;;;;24.40;15.60;;;;;;;9.67;100.00;101970.81;5030762;28;20488;-67
2021/04/20 01:59:18;;;;;;;25.35;15.95;;;;;;;9.64;100.00;101963.88;5029466;28;20650;-69
2021/04/20 02:01:45;;;;;;;21.02;16.42;;;;;;;9.63;100.00;101961.38;5030703;28;20128;-68
2021/04/20 02:04:10;;;;;;;24.02;16.73;;;;;;;9.61;100.00;101963.47;5031719;28;20116;-67
2021/04/20 02:06:36;;;;;;;26.13;16.98;;;;;;;9.59;100.00;101966.41;5034334;28;20135;-67
2021/04/20 02:09:05;;;;;;;29.35;17.95;;;;;;;9.59;100.00;101958.22;5034743;28;20034;-68
2021/04/20 02:11:31;;;;;;;27.45;16.17;;;;;;;9.59;100.00;101958.22;5034468;28;20574;-65
2021/04/20 02:14:00;;;;;;;25.27;17.00;;;;;;;9.59;100.00;101963.69;5034220;28;20056;-68
2021/04/20 02:16:27;;;;;;;22.05;16.92;;;;;;;9.58;100.00;101966.63;5034138;28;20569;-67
2021/04/20 02:18:56;;;;;;;23.67;16.13;;;;;;;9.58;100.00;101958.44;5034052;28;20118;-67
2021/04/20 02:21:23;;;;;;;24.05;16.70;;;;;;;9.58;100.00;101966.63;5034241;28;20566;-68
2021/04/20 02:23:53;;;;;;;24.80;17.27;;;;;;;9.58;100.00;101963.91;5033963;28;20041;-67
2021/04/20 02:26:25;;;;;;;23.52;16.85;;;;;;;9.56;100.00;101960.53;5034204;28;20119;-66
2021/04/20 02:28:52;;;;;;;27.30;17.20;;;;;;;9.58;100.00;101952.97;5032920;28;20087;-67
2021/04/20 02:31:17;;;;;;;24.77;17.58;;;;;;;9.57;100.00;101952.16;5033936;28;20476;-69
2021/04/20 02:33:44;;;;;;;23.35;16.60;;;;;;;9.58;100.00;101955.72;5033767;28;20061;-67
2021/04/20 02:36:10;;;;;;;24.25;17.75;;;;;;;9.58;100.00;101947.53;5034080;28;20072;-68
2021/04/20 02:38:36;;;;;;;22.15;16.33;;;;;;;9.56;100.00;101949.63;5033810;28;20052;-66
2021/04/20 02:41:04;;;;;;;26.33;17.85;;;;;;;9.57;100.00;101951.31;5033668;28;20475;-65
2021/04/20 02:43:31;;;;;;;29.10;18.20;;;;;;;9.55;100.00;101958.88;5033604;28;20514;-66
2021/04/20 02:45:59;;;;;;;26.63;18.27;;;;;;;9.53;100.00;101947.28;5033745;28;20037;-68
2021/04/20 02:48:27;;;;;;;27.75;18.02;;;;;;;9.53;100.00;101950.03;5033594;28;20887;-69
2021/04/20 02:50:55;;;;;;;26.00;18.67;;;;;;;9.53;100.00;101944.56;5033686;28;20033;-68
2021/04/20 02:53:23;;;;;;;27.42;17.70;;;;;;;9.51;100.00;101946.66;5033521;28;20075;-66
2021/04/20 02:55:49;;;;;;;24.15;16.90;;;;;;;9.51;100.00;101946.66;5033436;28;20049;-66
2021/04/20 02:58:17;;;;;;;26.92;18.58;;;;;;;9.50;100.00;101945.00;5033291;28;20124;-65
2021/04/20 03:00:45;;;;;;;26.90;18.58;;;;;;;9.50;100.00;101939.53;5031947;28;20048;-67
2021/04/20 03:03:13;;;;;;;31.52;19.90;;;;;;;9.49;100.00;101943.31;5033392;28;20037;-68
2021/04/20 03:05:39;;;;;;;28.75;19.15;;;;;;;9.51;100.00;101941.22;5033113;28;20045;-66
2021/04/20 03:08:06;;;;;;;28.63;19.88;;;;;;;9.51;100.00;101944.78;5033092;28;20037;-68
2021/04/20 03:10:32;;;;;;;29.20;18.75;;;;;;;9.53;100.00;101950.03;5033169;28;20095;-68
2021/04/20 03:12:58;;;;;;;30.02;20.63;;;;;;;9.53;100.00;101944.56;5032936;28;20041;-66
2021/04/20 03:15:24;;;;;;;27.95;18.90;;;;;;;9.54;100.00;101940.78;5032165;28;20092;-66
2021/04/20 03:17:50;;;;;;;34.65;18.90;;;;;;;9.54;100.00;101944.34;5032983;28;20041;-65
2021/04/20 03:20:17;;;;;;;29.38;17.73;;;;;;;9.54;100.00;101947.06;5032780;28;20037;-67
2021/04/20 03:22:45;;;;;;;18.52;13.75;;;;;;;9.54;100.00;101944.34;5033299;28;20411;-67
2021/04/20 03:25:11;;;;;;;19.05;12.48;;;;;;;9.57;100.00;101943.13;5032980;28;20057;-68
2021/04/20 03:27:42;;;;;;;21.13;13.30;;;;;;;9.59;100.00;101946.47;5032742;28;20060;-66
2021/04/20 03:30:10;;;;;;;18.85;12.32;;;;;;;9.58;100.00;101942.06;5032838;28;20029;-66
2021/04/20 03:32:39;;;;;;;15.77;11.23;;;;;;;9.58;100.00;101952.97;5032764;28;20037;-65
2021/04/20 03:35:18;;;;;;;19.55;11.88;;;;;;;9.55;100.00;101947.94;5032550;28;20033;-68
2021/04/20 03:37:56;;;;;;;15.38;10.90;;;;;;;9.54;100.00;101957.16;5032702;28;20026;-68
2021/04/20 03:40:24;;;;;;;22.17;10.85;;;;;;;9.53;100.00;101944.56;5032371;28;20029;-67
2021/04/20 03:42:53;;;;;;;17.45;12.07;;;;;;;9.51;100.00;101946.66;5032597;28;20042;-66
2021/04/20 03:45:23;;;;;;;16.90;10.93;;;;;;;9.49;100.00;101955.06;5032492;28;20036;-69
2021/04/20 03:47:56;;;;;;;19.02;11.80;;;;;;;9.48;100.00;101945.19;5032457;28;20090;-66
2021/04/20 03:50:30;;;;;;;21.15;11.45;;;;;;;9.47;100.00;101939.94;5032365;28;20109;-67
2021/04/20 03:53:00;;;;;;;19.00;12.82;;;;;;;9.45;100.00;101947.50;5032653;28;20051;-68
2021/04/20 03:55:27;;;;;;;20.60;14.23;;;;;;;9.43;100.00;101938.69;5032212;28;20033;-69
2021/04/20 03:57:55;;;;;;;20.65;13.13;;;;;;;9.42;100.00;101939.75;5032206;28;20087;-66
2021/04/20 04:00:24;;;;;;;17.83;11.80;;;;;;;9.41;100.00;101935.34;5032070;28;20033;-67
2021/04/20 04:02:53;;;;;;;18.85;12.35;;;;;;;9.38;100.00;101936.59;5032295;28;20060;-68
2021/04/20 04:05:27;;;;;;;21.08;13.68;;;;;;;9.38;100.00;101941.22;5031967;28;20464;-69
2021/04/20 04:07:55;;;;;;;17.90;12.50;;;;;;;9.36;100.00;101934.06;5032121;28;20112;-67
2021/04/20 04:10:22;;;;;;;22.35;14.43;;;;;;;9.33;100.00;101934.47;5032408;28;20277;-64
2021/04/20 04:13:02;;;;;;;18.98;12.48;;;;;;;9.31;100.00;101931.13;5031964;28;20110;-68
2021/04/20 04:15:29;;;;;;;18.77;12.82;;;;;;;9.25;100.00;101931.13;5031889;28;20136;-69
2021/04/20 04:17:58;;;;;;;20.25;12.90;;;;;;;9.18;100.00;101931.09;5031696;28;20084;-69
2021/04/20 04:20:24;;;;;;;19.60;12.50;;;;;;;9.15;100.00;101941.56;5031788;28;20032;-65
2021/04/20 04:23:01;;;;;;;17.92;12.60;;;;;;;9.11;100.00;101927.50;5031866;28;20045;-69
2021/04/20 04:25:33;;;;;;;19.67;13.45;;;;;;;9.08;100.00;101930.66;5031889;28;20033;-68
2021/04/20 04:28:03;;;;;;;17.50;12.95;;;;;;;9.01;100.00;101930.63;5031576;28;20403;-66
2021/04/20 04:30:30;;;;;;;17.80;12.52;;;;;;;8.95;100.00;101933.34;5031626;28;20060;-67
2021/04/20 04:32:56;;;;;;;21.08;13.38;;;;;;;8.88;100.00;101929.75;5031664;28;20049;-68
2021/04/20 04:35:23;;;;;;;19.45;12.77;;;;;;;8.83;100.00;101932.22;5031635;28;20034;-67
2021/04/20 04:37:49;;;;;;;26.40;13.80;;;;;;;8.80;100.00;101932.66;5031837;28;20056;-67
2021/04/20 04:40:17;;;;;;;17.40;12.68;;;;;;;8.79;100.00;101930.97;5031370;28;20215;-68
2021/04/20 04:42:43;;;;;;;22.25;13.80;;;;;;;8.74;100.00;101929.72;5031621;28;20095;-65
2021/04/20 04:45:13;;;;;;;18.92;12.63;;;;;;;8.72;100.00;101923.63;5031453;28;20037;-66
2021/04/20 04:47:39;;;;;;;20.42;13.27;;;;;;;8.71;100.00;101924.66;5031447;28;20038;-67
2021/04/20 04:50:07;;;;;;;18.60;12.30;;;;;;;8.70;100.00;101928.44;5031336;28;20033;-67
2021/04/20 04:52:34;;;;;;;21.27;12.98;;;;;;;8.65;100.00;101920.00;5030118;28;20041;-69
2021/04/20 04:55:01;;;;;;;20.02;13.30;;;;;;;8.62;100.00;101922.31;5031278;28;20583;-67
2021/04/20 04:57:28;;;;;;;22.92;14.10;;;;;;;8.59;100.00;101920.84;5031304;28;20437;-66
2021/04/20 04:59:58;;;;;;;21.70;14.05;;;;;;;8.59;100.00;101925.44;5031248;28;20037;-68
2021/04/20 05:02:24;;;;;;;26.17;14.68;;;;;;;8.59;100.00;101926.28;5031723;28;20021;-67
2021/04/20 05:04:50;;;;;;;19.75;13.50;;;;;;;8.58;100.00;101927.31;5031120;28;20339;-68
2021/04/20 05:07:21;;;;;;;24.10;13.93;;;;;;;8.56;100.00;101926.69;5031145;28;20037;-68
2021/04/20 05:09:47;;;;;;;21.10;13.65;;;;;;;8.55;100.00;101930.47;5031191;28;20037;-69
2021/04/20 05:12:17;;;;;;;20.80;13.98;;;;;;;8.53;100.00;101929.81;5031140;28;20090;-66
2021/04/20 05:14:43;;;;;;;21.88;13.32;;;;;;;8.52;100.00;101925.44;5031252;28;20433;-67
2021/04/20 05:17:11;;;;;;;20.25;13.13;;;;;;;8.50;100.00;101927.47;5013289;28;20076;-68
2021/04/20 05:19:39;;;;;;;21.88;13.65;;;;;;;8.49;100.00;101928.53;5031112;28;20037;-67
2021/04/20 05:22:05;;;;;;;22.30;14.75;;;;;;;8.47;100.00;101927.91;5030922;28;20044;-66
2021/04/20 05:24:31;;;;;;;20.20;13.95;;;;;;;8.45;100.00;101936.25;5030910;28;20124;-67
2021/04/20 05:26:58;;;;;;;26.60;14.38;;;;;;;8.43;100.00;101938.34;5031190;28;20033;-68
2021/04/20 05:29:23;;;;;;;21.05;14.40;;;;;;;8.44;100.00;101933.75;5029698;28;20579;-68
2021/04/20 05:31:49;;;;;;;22.00;15.27;;;;;;;8.46;100.00;101937.09;5031064;28;20124;-66
2021/04/20 05:34:19;;;;;;;20.35;14.25;;;;;;;8.49;100.00;101931.25;5030890;28;20548;-65
2021/04/20 05:36:47;;;;;;;19.88;14.38;;;;;;;8.50;100.00;101932.94;5030994;28;20383;-69
2021/04/20 05:39:14;;;;;;;26.80;15.07;;;;;;;8.53;100.00;101937.16;5030319;28;20045;-67
2021/04/20 05:41:41;;;;;;;19.92;15.05;;;;;;;8.53;100.00;101932.56;5034691;28;20116;-68
2021/04/20 05:44:10;;;;;;;29.48;15.32;;;;;;;8.54;100.00;101942.41;5034672;28;20060;-66
2021/04/20 05:46:41;;;;;;;21.83;13.75;;;;;;;8.56;100.00;101940.31;5034928;28;20025;-67
2021/04/20 05:49:07;;;;;;;24.52;15.32;;;;;;;8.59;100.00;101945.34;5034832;28;20033;-66
2021/04/20 05:51:33;;;;;;;22.05;15.07;;;;;;;8.61;100.00;101940.53;5034654;28;20045;-66
2021/04/20 05:53:59;;;;;;;19.65;14.00;;;;;;;8.65;100.00;101941.81;5034413;28;20025;-66
2021/04/20 05:56:25;;;;;;;22.92;15.60;;;;;;;8.68;100.00;101948.75;5034845;28;20090;-67
2021/04/20 05:58:56;;;;;;;20.13;14.65;;;;;;;8.70;100.00;101943.94;5034417;28;20056;-66
2021/04/20 06:01:24;;;;;;;21.15;14.98;;;;;;;8.72;100.00;101950.03;5034535;28;20484;-68
2021/04/20 06:03:51;;;;;;;25.02;15.05;;;;;;;8.73;100.00;101949.81;5034425;28;20511;-66
2021/04/20 06:06:19;;;;;;;23.33;15.63;;;;;;;8.76;100.00;101945.84;5034544;28;20400;-67
2021/04/20 06:08:46;;;;;;;21.40;14.20;;;;;;;8.82;100.00;101957.81;5034438;28;20034;-69
2021/04/20 06:11:13;;;;;;;22.88;14.90;;;;;;;8.85;100.00;101951.94;5034238;28;20040;-68
2021/04/20 06:13:39;;;;;;;22.80;14.57;;;;;;;8.86;100.00;101953.66;5034385;28;20034;-68
2021/04/20 06:16:07;;;;;;;22.05;15.57;;;;;;;8.87;100.00;101960.78;5034226;28;20067;-66
2021/04/20 06:18:36;;;;;;;24.17;15.63;;;;;;;8.89;100.00;101958.69;5034150;28;20041;-66
2021/04/20 06:21:02;;;;;;;30.45;16.25;;;;;;;8.91;100.00;101951.16;5034307;28;20045;-66
2021/04/20 06:23:29;;;;;;;25.23;16.45;;;;;;;8.95;100.00;101955.13;5034324;28;20049;-66
2021/04/20 06:26:00;;;;;;;24.10;15.85;;;;;;;8.99;100.00;101957.25;5034146;28;20048;-69
2021/04/20 06:28:26;;;;;;;25.70;16.75;;;;;;;9.04;100.00;101948.47;5033937;28;20029;-66
2021/04/20 06:30:56;;;;;;;23.92;15.90;;;;;;;9.09;100.00;101959.59;5034099;28;20605;-67
2021/04/20 06:33:24;;;;;;;18.70;14.90;;;;;;;9.10;100.00;101961.28;5033941;28;20490;-69
2021/04/20 06:35:51;;;;;;;26.13;15.75;;;;;;;9.14;100.00;101957.09;5032887;28;20051;-68
2021/04/20 06:38:17;;;;;;;22.73;15.65;;;;;;;9.19;100.00;101954.56;5034132;28;20033;-67
2021/04/20 06:40:48;;;;;;;25.77;16.75;;;;;;;9.24;100.00;101956.69;5033582;28;20420;-67
2021/04/20 06:43:20;;;;;;;22.00;16.13;;;;;;;9.30;100.00;101951.25;5033915;28;20040;-66
2021/04/20 06:45:48;;;;;;;24.75;16.00;;;;;;;9.38;100.00;101957.56;5033626;28;20052;-66
2021/04/20 06:48:44;;;;;;;24.20;16.13;;;;;;;9.44;100.00;101945.81;5033772;28;20392;-65
2021/04/20 06:51:16;;;;;;;23.05;15.73;;;;;;;9.49;100.00;101948.75;5032496;28;20091;-68
2021/04/20 06:53:49;;;;;;;26.67;17.52;;;;;;;9.55;100.00;101953.41;5033905;28;20037;-68
2021/04/20 06:56:27;;;;;;;22.88;15.85;;;;;;;9.62;100.00;101948.78;5033710;28;20030;-64
2021/04/20 06:59:23;;;;;;;21.77;15.57;;;;;;;9.71;100.00;101947.50;5033404;28;20044;-66
2021/04/20 07:02:04;;;;;;;30.23;18.17;;;;;;;9.77;100.00;101941.25;5033757;28;20034;-68
2021/04/20 07:04:59;;;;;;;29.65;17.58;;;;;;;9.82;100.00;101935.97;5033224;28;20120;-66
2021/04/20 07:07:52;;;;;;;28.25;19.13;;;;;;;9.90;100.00;101938.50;5010856;28;20061;-66
2021/04/20 07:10:25;;;;;;;25.10;17.42;;;;;;;9.98;100.00;101942.91;5011492;28;20041;-69
2021/04/20 07:12:56;;;;;;;24.33;17.00;;;;;;;10.07;100.00;101941.66;5033303;28;20045;-68
2021/04/20 07:15:25;;;;;;;23.23;15.38;;;;;;;10.15;100.00;101943.31;5031770;28;20037;-68
2021/04/20 07:17:59;;;;;;;24.92;16.73;;;;;;;10.24;100.00;101947.53;5033123;28;20040;-69
2021/04/20 07:20:35;;;;;;;22.10;14.32;;;;;;;10.35;100.00;101938.66;5033025;28;20033;-65
2021/04/20 07:23:19;;;;;;;19.60;15.45;;;;;;;10.43;100.00;101941.19;5033500;28;20037;-68
2021/04/20 07:26:14;;;;;;;23.13;14.73;;;;;;;10.53;100.00;101947.03;5031826;28;20034;-66
2021/04/20 07:29:09;;;;;;;24.40;14.98;;;;;;;10.63;100.00;101951.22;5033205;28;20120;-68
2021/04/20 07:32:00;;;;;;;26.92;14.50;;;;;;;10.67;100.00;101944.25;5010883;28;20076;-68
2021/04/20 07:34:41;;;;;;;23.23;15.30;;;;;;;10.76;100.00;101946.53;5025907;28;20124;-66
2021/04/20 07:37:30;;;;;;;23.05;14.50;;;;;;;10.85;100.00;101950.69;5052156;28;20044;-65
2021/04/20 07:40:05;;;;;;;24.00;16.20;;;;;;;10.95;100.00;101950.25;5051751;28;20037;-66
2021/04/20 07:42:49;;;;;;;;;;;;;;;11.05;100.00;101958.78;5052619;28;20054;-65
2021/04/20 07:45:25;;;;;;;22.08;15.80;;;;;;;11.15;100.00;101959.16;5044303;28;19913;-66
2021/04/20 07:47:59;;;;;;;24.08;16.13;;;;;;;11.23;100.00;101941.66;5049961;28;20024;-65
2021/04/20 07:50:32;;;;;;;21.13;15.27;;;;;;;11.30;100.00;101949.84;5043705;28;20472;-62
2021/04/20 07:53:08;;;;;;;22.50;15.85;;;;;;;11.35;100.00;101948.09;5050686;28;20136;-66
2021/04/20 07:56:04;;;;;;;26.05;14.60;;;;;;;11.44;100.00;101949.50;5051648;28;20033;-65
2021/04/20 07:58:37;;;;;;;22.63;13.55;;;;;;;11.55;100.00;101958.91;5047455;28;20047;-66
2021/04/20 08:01:16;;;;;;;25.65;14.80;;;;;;;11.65;100.00;101953.81;5045740;28;20099;-63
2021/04/20 08:03:44;;;;;;;25.23;16.40;;;;;;;11.76;100.00;101957.69;5049348;28;20032;-66
2021/04/20 08:06:15;;;;;;;25.85;16.23;;;;;;;11.89;100.00;101945.84;5051204;28;20102;-66
2021/04/20 08:08:48;;;;;;;25.60;16.15;;;;;;;11.99;100.00;101951.66;5047236;28;20452;-66
2021/04/20 08:11:18;;;;;;;25.10;15.77;;;;;;;12.10;100.00;101950.91;5043751;28;20032;-64
2021/04/20 08:13:47;;;;;;;27.85;17.02;;;;;;;12.16;100.00;101958.25;5047196;28;20549;-65
2021/04/20 08:16:23;;;;;;;27.02;15.18;;;;;;;12.24;100.00;101952.47;5050970;28;20417;-67
2021/04/20 08:18:55;;;;;;;21.80;15.77;;;;;;;12.35;100.00;101954.47;5049167;28;20037;-64
2021/04/20 08:21:21;;;;;;;24.98;15.07;;;;;;;12.44;100.00;101954.16;5048107;28;20104;-68
2021/04/20 08:23:51;;;;;;;25.98;15.48;;;;;;;12.54;100.00;101962.69;5050204;28;20044;-68
2021/04/20 08:26:25;;;;;;;31.60;15.45;;;;;;;12.65;100.00;101964.66;5050182;28;20036;-67
2021/04/20 08:29:10;;;;;;;24.23;15.30;;;;;;;12.77;100.00;101962.81;5050548;28;20033;-63
2021/04/20 08:31:49;;;;;;;21.63;15.63;;;;;;;12.95;100.00;101964.72;5049936;28;20514;-69
2021/04/20 08:34:21;;;;;;;27.38;16.77;;;;;;;13.13;100.00;101966.59;5047982;28;20187;-66
2021/04/20 08:37:09;;;;;;;24.75;16.30;;;;;;;13.26;100.00;101966.44;5049104;28;20029;-67
2021/04/20 08:39:44;;;;;;;25.52;16.70;;;;;;;13.35;100.00;101961.44;5051363;28;20037;-70
2021/04/20 08:42:24;;;;;;;26.10;16.35;;;;;;;13.40;100.00;101964.38;5049929;28;20056;-68
2021/04/20 08:45:01;;;;;;;24.48;16.10;;;;;;;13.41;100.00;101960.53;5051491;28;20857;-69
2021/04/20 08:48:04;;;;;;;24.33;16.17;;;;;;;13.47;100.00;101957.69;5051837;28;20033;-68
2021/04/20 08:50:37;;;;;;;25.55;15.65;;;;;;;13.56;100.00;101953.56;5051555;28;20029;-70
2021/04/20 08:53:30;;;;;;;21.50;14.80;;;;;;;13.58;100.00;101956.91;5051597;28;20036;-68
2021/04/20 08:56:03;;;;;;;24.25;15.38;;;;;;;13.61;100.00;101954.75;5051735;28;20032;-67
2021/04/20 08:58:42;;;;;;;25.40;15.40;;;;;;;13.65;100.00;101956.78;5051283;28;20048;-68
2021/04/20 09:01:26;;;;;;;23.60;15.55;;;;;;;13.72;100.00;101959.44;5051275;28;20128;-66
2021/04/20 09:04:38;;;;;;;22.42;16.63;;;;;;;13.67;100.00;101959.28;5051221;28;20060;-70
2021/04/20 09:07:29;;;;;;;26.52;18.15;;;;;;;13.67;100.00;101964.78;5055432;28;20041;-67
2021/04/20 09:10:04;;;;;;;25.23;18.48;;;;;;;13.64;100.00;101955.09;5050975;28;20032;-64
2021/04/20 09:12:35;;;;;;;26.77;18.65;;;;;;;13.69;100.00;101954.38;5050976;28;20614;-67
2021/04/20 09:15:04;;;;;;;24.33;17.63;;;;;;;13.73;100.00;101955.63;5049271;28;20116;-66
2021/04/20 09:17:36;;;;;;;28.10;19.95;;;;;;;13.80;100.00;101962.66;5050293;28;20122;-65
2021/04/20 09:20:08;;;;;;;23.48;17.88;;;;;;;13.81;100.00;101966.25;5050589;28;20037;-66
2021/04/20 09:22:55;;;;;;;27.05;17.88;;;;;;;13.83;100.00;101964.09;5051016;28;20056;-66
2021/04/20 09:25:42;;;;;;;21.83;17.27;;;;;;;13.91;100.00;101962.94;5050602;28;20033;-66
2021/04/20 09:28:20;;;;;;;23.13;18.77;;;;;;;14.04;100.00;101969.00;5047616;28;20471;-65
2021/04/20 09:31:01;;;;;;;25.15;17.67;;;;;;;14.17;100.00;101968.78;5048827;28;20033;-66
2021/04/20 09:33:47;;;;;;;24.85;16.60;;;;;;;14.31;100.00;101965.81;5050662;28;20079;-67
2021/04/20 09:36:14;;;;;;;21.83;16.50;;;;;;;14.40;100.00;101964.34;5050110;28;20044;-67
2021/04/20 09:38:46;;;;;;;23.70;15.65;;;;;;;14.40;100.00;101967.94;5050442;28;20893;-64
2021/04/20 09:41:14;;;;;;;19.27;14.50;;;;;;;14.40;100.00;101975.34;5050141;28;20059;-66
2021/04/20 09:44:14;;;;;;;19.30;14.23;;;;;;;14.39;100.00;101976.41;5050206;28;20094;-66
2021/04/20 09:46:49;;;;;;;22.77;16.92;;;;;;;14.51;100.00;101982.78;5050228;28;20049;-65
2021/04/20 09:49:46;;;;;;;27.33;18.98;;;;;;;14.53;100.00;101980.63;5048606;28;20122;-65
2021/04/20 09:52:17;;;;;;;25.10;18.88;;;;;;;14.49;100.00;101979.44;5049675;28;20033;-65
2021/04/20 09:54:49;;;;;;;27.88;18.98;;;;;;;14.55;100.00;101978.47;5049970;28;20033;-65
2021/04/20 09:57:17;;;;;;;25.75;19.15;;;;;;;14.65;100.00;101981.47;5050138;28;20040;-65
2021/04/20 09:59:48;;;;;;;29.90;19.33;;;;;;;14.68;100.00;101977.38;5049877;28;20082;-66
2021/04/20 10:02:22;;;;;;;24.65;18.00;;;;;;;14.62;100.00;101983.88;5050275;28;20431;-66
2021/04/20 10:05:03;;;;;;;27.58;16.63;;;;;;;14.65;100.00;101978.72;5048389;28;20475;-66
2021/04/20 10:07:50;;;;;;;26.15;18.33;;;;;;;14.64;100.00;101982.53;5049942;28;20040;-65
2021/04/20 10:10:41;;;;;;;22.67;18.20;;;;;;;14.59;100.00;101978.84;5050116;28;20479;-67
2021/04/20 10:13:46;;;;;;;24.95;17.92;;;;;;;14.54;100.00;101982.31;5049865;28;20032;-66
2021/04/20 10:16:22;;;;;;;22.48;16.95;;;;;;;14.61;100.00;101980.28;5049967;28;20075;-65
2021/04/20 10:19:03;;;;;;;24.88;16.60;;;;;;;14.69;100.00;101982.63;5048470;28;20049;-66
2021/04/20 10:21:39;;;;;;;23.23;14.73;;;;;;;14.85;100.00;101977.47;5050016;28;20072;-64
2021/04/20 10:24:16;;;;;;;21.70;17.10;;;;;;;14.98;100.00;101971.69;5049981;28;20108;-66
2021/04/20 10:27:06;;;;;;;22.80;16.33;;;;;;;15.10;100.00;101975.25;5053368;28;20036;-68
2021/04/20 10:30:07;;;;;;;23.40;16.65;;;;;;;15.22;100.00;101981.53;5052170;28;20040;-68
2021/04/20 10:32:36;;;;;;;27.88;17.08;;;;;;;15.30;100.00;101981.16;5053453;28;20040;-65
2021/04/20 10:35:05;;;;;;;24.95;17.58;;;;;;;15.28;100.00;101972.31;5053386;28;20552;-68
2021/04/20 10:37:39;;;;;;;25.67;17.88;;;;;;;15.28;100.00;101977.81;5053373;28;20433;-65
2021/04/20 10:40:11;;;;;;;27.40;18.50;;;;;;;15.19;100.00;101979.28;5053144;28;20578;-66
2021/04/20 10:42:38;;;;;;;24.00;17.05;;;;;;;15.12;100.00;101973.09;5053087;28;20041;-67
2021/04/20 10:45:07;;;;;;;27.25;18.33;;;;;;;14.95;100.00;101977.69;5053260;28;20036;-66
2021/04/20 10:47:37;;;;;;;26.15;18.45;;;;;;;14.86;100.00;101968.13;5043943;28;20045;-67
2021/04/20 10:50:05;;;;;;;26.48;18.08;;;;;;;14.83;100.00;101968.63;5033303;28;20480;-67
2021/04/20 10:52:36;;;;;;;23.35;17.20;;;;;;;14.88;100.00;101965.97;5033150;28;20053;-68
2021/04/20 10:55:10;;;;;;;26.27;18.33;;;;;;;15.00;100.00;101970.38;5033011;28;20461;-68
2021/04/20 10:57:45;;;;;;;29.57;18.57;;;;;;;15.17;100.00;101973.19;5040752;28;20056;-68
2021/04/20 11:00:14;;;;;;;25.00;17.58;;;;;;;15.27;100.00;101970.66;5044757;28;20040;-67
2021/04/20 11:02:46;;;;;;;22.73;17.77;;;;;;;15.42;100.00;101969.22;5033058;28;20029;-70
2021/04/20 11:05:17;;;;;;;24.92;16.95;;;;;;;15.55;100.00;101966.19;5032512;28;20039;-68
2021/04/20 11:07:44;;;;;;;25.20;16.70;;;;;;;15.62;100.00;101959.47;5032616;28;20037;-67
2021/04/20 11:10:14;;;;;;;24.73;16.83;;;;;;;15.93;100.00;101966.31;5032713;28;20084;-66
2021/04/20 11:12:41;;;;;;;22.40;17.20;;;;;;;16.13;100.00;101962.22;5032492;28;20128;-66
2021/04/20 11:15:26;;;;;;;25.60;16.73;;;;;;;16.18;100.00;101959.56;5047396;28;20053;-68
2021/04/20 11:17:54;;;;;;;28.33;19.42;;;;;;;16.14;100.00;101966.66;5032604;28;20098;-68
2021/04/20 11:20:43;;;;;;;24.02;16.65;;;;;;;16.22;100.00;101960.72;5032016;28;20091;-69
2021/04/20 11:23:08;;;;;;;24.83;16.23;;;;;;;16.17;100.00;101957.91;5032105;28;20040;-68
2021/04/20 11:25:49;;;;;;;26.45;17.10;;;;;;;16.28;100.00;101954.19;5031911;28;20053;-68
2021/04/20 11:28:27;;;;;;;21.42;15.18;;;;;;;16.22;100.00;101952.44;5030671;28;20082;-69